sensor_id;sensor_type;location;lat;lon;timestamp;P1;durP1;ratioP1;P2;durP2;ratioP2
76063;SDS011;64762;52.006;8.424;2023-12-20T00:02:07;11.57;;;5.03;;
76063;SDS011;64762;52.006;8.424;2023-12-20T00:04:32;13.30;;;4.83;;
76063;SDS011;64762;52.006;8.424;2023-12-20T00:06:57;13.83;;;4.67;;
76063;SDS011;64762;52.006;8.424;2023-12-20T00:09:22;11.27;;;4.00;;
76063;SDS011;64762;52.006;8.424;2023-12-20T00:11:48;8.73;;;4.00;;
76063;SDS011;64762;52.006;8.424;2023-12-20T00:14:13;13.20;;;4.23;;
76063;SDS011;64762;52.006;8.424;2023-12-20T00:16:38;10.10;;;3.60;;
76063;SDS011;64762;52.006;8.424;2023-12-20T00:19:04;13.57;;;4.40;;
76063;SDS011;64762;52.006;8.424;2023-12-20T00:21:29;8.70;;;4.10;;
76063;SDS011;64762;52.006;8.424;2023-12-20T00:23:54;13.63;;;4.93;;
76063;SDS011;64762;52.006;8.424;2023-12-20T00:26:19;11.47;;;5.00;;
76063;SDS011;64762;52.006;8.424;2023-12-20T00:28:45;12.87;;;5.30;;
76063;SDS011;64762;52.006;8.424;2023-12-20T00:31:10;15.97;;;5.50;;
76063;SDS011;64762;52.006;8.424;2023-12-20T00:33:35;11.30;;;5.17;;
76063;SDS011;64762;52.006;8.424;2023-12-20T00:36:01;13.67;;;4.73;;
76063;SDS011;64762;52.006;8.424;2023-12-20T00:38:26;11.70;;;4.70;;
76063;SDS011;64762;52.006;8.424;2023-12-20T00:40:51;8.80;;;3.50;;
76063;SDS011;64762;52.006;8.424;2023-12-20T00:43:17;8.50;;;3.83;;
76063;SDS011;64762;52.006;8.424;2023-12-20T00:45:42;11.73;;;3.83;;
76063;SDS011;64762;52.006;8.424;2023-12-20T00:48:07;7.73;;;3.50;;
76063;SDS011;64762;52.006;8.424;2023-12-20T00:50:33;8.80;;;3.90;;
76063;SDS011;64762;52.006;8.424;2023-12-20T00:52:58;9.47;;;3.30;;
76063;SDS011;64762;52.006;8.424;2023-12-20T00:55:23;9.53;;;3.53;;
76063;SDS011;64762;52.006;8.424;2023-12-20T00:57:49;11.90;;;3.70;;
76063;SDS011;64762;52.006;8.424;2023-12-20T01:00:14;7.65;;;3.25;;
76063;SDS011;64762;52.006;8.424;2023-12-20T01:02:39;9.52;;;3.28;;
76063;SDS011;64762;52.006;8.424;2023-12-20T01:05:05;10.35;;;3.92;;
76063;SDS011;64762;52.006;8.424;2023-12-20T01:07:32;10.38;;;3.78;;
76063;SDS011;64762;52.006;8.424;2023-12-20T01:09:57;8.10;;;3.20;;
76063;SDS011;64762;52.006;8.424;2023-12-20T01:12:22;8.67;;;3.40;;
76063;SDS011;64762;52.006;8.424;2023-12-20T01:14:48;12.53;;;3.30;;
76063;SDS011;64762;52.006;8.424;2023-12-20T01:17:13;11.20;;;3.30;;
76063;SDS011;64762;52.006;8.424;2023-12-20T01:19:38;8.80;;;3.10;;
76063;SDS011;64762;52.006;8.424;2023-12-20T01:22:04;8.10;;;3.10;;
76063;SDS011;64762;52.006;8.424;2023-12-20T01:24:29;12.73;;;3.40;;
76063;SDS011;64762;52.006;8.424;2023-12-20T01:26:54;7.93;;;2.40;;
76063;SDS011;64762;52.006;8.424;2023-12-20T01:29:20;7.60;;;3.30;;
76063;SDS011;64762;52.006;8.424;2023-12-20T01:31:45;9.40;;;2.50;;
76063;SDS011;64762;52.006;8.424;2023-12-20T01:34:10;12.10;;;3.23;;
76063;SDS011;64762;52.006;8.424;2023-12-20T01:36:35;6.97;;;2.53;;
76063;SDS011;64762;52.006;8.424;2023-12-20T01:39:01;9.97;;;2.40;;
76063;SDS011;64762;52.006;8.424;2023-12-20T01:41:26;7.57;;;2.73;;
76063;SDS011;64762;52.006;8.424;2023-12-20T01:43:51;7.30;;;2.43;;
76063;SDS011;64762;52.006;8.424;2023-12-20T01:46:18;7.05;;;2.05;;
76063;SDS011;64762;52.006;8.424;2023-12-20T01:48:44;6.25;;;2.40;;
76063;SDS011;64762;52.006;8.424;2023-12-20T01:51:09;8.43;;;2.60;;
76063;SDS011;64762;52.006;8.424;2023-12-20T01:53:35;9.05;;;2.60;;
76063;SDS011;64762;52.006;8.424;2023-12-20T01:56:01;9.15;;;3.03;;
76063;SDS011;64762;52.006;8.424;2023-12-20T01:58:26;8.50;;;2.30;;
76063;SDS011;64762;52.006;8.424;2023-12-20T02:00:52;9.00;;;2.25;;
76063;SDS011;64762;52.006;8.424;2023-12-20T02:03:18;6.88;;;2.28;;
76063;SDS011;64762;52.006;8.424;2023-12-20T02:05:43;7.57;;;2.27;;
76063;SDS011;64762;52.006;8.424;2023-12-20T02:08:09;9.98;;;2.10;;
76063;SDS011;64762;52.006;8.424;2023-12-20T02:10:35;7.97;;;2.40;;
76063;SDS011;64762;52.006;8.424;2023-12-20T02:13:00;11.53;;;2.00;;
76063;SDS011;64762;52.006;8.424;2023-12-20T02:15:25;12.70;;;2.20;;
76063;SDS011;64762;52.006;8.424;2023-12-20T02:17:51;9.65;;;2.05;;
76063;SDS011;64762;52.006;8.424;2023-12-20T02:20:16;6.97;;;1.70;;
76063;SDS011;64762;52.006;8.424;2023-12-20T02:22:41;8.13;;;2.00;;
76063;SDS011;64762;52.006;8.424;2023-12-20T02:25:07;6.00;;;2.07;;
76063;SDS011;64762;52.006;8.424;2023-12-20T02:27:32;5.18;;;1.80;;
76063;SDS011;64762;52.006;8.424;2023-12-20T02:29:58;6.73;;;1.70;;
76063;SDS011;64762;52.006;8.424;2023-12-20T02:32:24;7.50;;;2.40;;
76063;SDS011;64762;52.006;8.424;2023-12-20T02:34:53;8.93;;;2.05;;
76063;SDS011;64762;52.006;8.424;2023-12-20T02:37:18;7.53;;;2.33;;
76063;SDS011;64762;52.006;8.424;2023-12-20T02:39:43;4.87;;;1.97;;
76063;SDS011;64762;52.006;8.424;2023-12-20T02:42:09;7.50;;;2.13;;
76063;SDS011;64762;52.006;8.424;2023-12-20T02:44:35;8.43;;;2.15;;
76063;SDS011;64762;52.006;8.424;2023-12-20T02:47:01;8.93;;;1.98;;
76063;SDS011;64762;52.006;8.424;2023-12-20T02:49:26;8.13;;;1.83;;
76063;SDS011;64762;52.006;8.424;2023-12-20T02:51:52;7.13;;;2.07;;
76063;SDS011;64762;52.006;8.424;2023-12-20T02:54:17;9.57;;;2.20;;
76063;SDS011;64762;52.006;8.424;2023-12-20T02:56:42;7.30;;;2.50;;
76063;SDS011;64762;52.006;8.424;2023-12-20T02:59:07;8.23;;;2.00;;
76063;SDS011;64762;52.006;8.424;2023-12-20T03:01:41;6.15;;;1.88;;
76063;SDS011;64762;52.006;8.424;2023-12-20T03:04:10;16.27;;;2.85;;
76063;SDS011;64762;52.006;8.424;2023-12-20T03:06:36;8.65;;;2.60;;
76063;SDS011;64762;52.006;8.424;2023-12-20T03:09:01;8.17;;;2.17;;
76063;SDS011;64762;52.006;8.424;2023-12-20T03:11:27;6.57;;;2.10;;
76063;SDS011;64762;52.006;8.424;2023-12-20T03:13:52;16.33;;;3.05;;
76063;SDS011;64762;52.006;8.424;2023-12-20T03:16:18;10.33;;;2.60;;
76063;SDS011;64762;52.006;8.424;2023-12-20T03:18:43;7.63;;;2.35;;
76063;SDS011;64762;52.006;8.424;2023-12-20T03:21:08;12.30;;;3.33;;
76063;SDS011;64762;52.006;8.424;2023-12-20T03:23:34;15.10;;;3.10;;
76063;SDS011;64762;52.006;8.424;2023-12-20T03:25:59;9.07;;;3.00;;
76063;SDS011;64762;52.006;8.424;2023-12-20T03:28:25;15.90;;;4.00;;
76063;SDS011;64762;52.006;8.424;2023-12-20T03:30:51;14.95;;;3.40;;
76063;SDS011;64762;52.006;8.424;2023-12-20T03:33:16;13.80;;;3.30;;
76063;SDS011;64762;52.006;8.424;2023-12-20T03:35:42;9.90;;;3.27;;
76063;SDS011;64762;52.006;8.424;2023-12-20T03:38:07;8.33;;;3.00;;
76063;SDS011;64762;52.006;8.424;2023-12-20T03:40:32;12.30;;;3.85;;
76063;SDS011;64762;52.006;8.424;2023-12-20T03:42:58;9.80;;;4.07;;
76063;SDS011;64762;52.006;8.424;2023-12-20T03:45:23;12.03;;;4.23;;
76063;SDS011;64762;52.006;8.424;2023-12-20T03:47:48;13.00;;;4.50;;
76063;SDS011;64762;52.006;8.424;2023-12-20T03:50:14;11.38;;;3.70;;
76063;SDS011;64762;52.006;8.424;2023-12-20T03:52:40;13.77;;;3.22;;
76063;SDS011;64762;52.006;8.424;2023-12-20T03:55:05;12.53;;;4.97;;
76063;SDS011;64762;52.006;8.424;2023-12-20T03:57:31;15.55;;;4.38;;
76063;SDS011;64762;52.006;8.424;2023-12-20T03:59:56;12.20;;;3.80;;
76063;SDS011;64762;52.006;8.424;2023-12-20T04:02:21;9.50;;;3.93;;
76063;SDS011;64762;52.006;8.424;2023-12-20T04:04:46;12.20;;;3.63;;
76063;SDS011;64762;52.006;8.424;2023-12-20T04:07:12;13.87;;;4.53;;
76063;SDS011;64762;52.006;8.424;2023-12-20T04:09:37;10.67;;;3.50;;
76063;SDS011;64762;52.006;8.424;2023-12-20T04:12:02;12.17;;;3.47;;
76063;SDS011;64762;52.006;8.424;2023-12-20T04:14:28;13.57;;;4.28;;
76063;SDS011;64762;52.006;8.424;2023-12-20T04:16:53;14.40;;;3.73;;
76063;SDS011;64762;52.006;8.424;2023-12-20T04:19:19;13.10;;;3.97;;
76063;SDS011;64762;52.006;8.424;2023-12-20T04:21:44;13.43;;;4.07;;
76063;SDS011;64762;52.006;8.424;2023-12-20T04:24:09;12.73;;;3.80;;
76063;SDS011;64762;52.006;8.424;2023-12-20T04:26:34;14.77;;;4.40;;
76063;SDS011;64762;52.006;8.424;2023-12-20T04:29:00;12.77;;;3.53;;
76063;SDS011;64762;52.006;8.424;2023-12-20T04:31:25;15.63;;;4.03;;
76063;SDS011;64762;52.006;8.424;2023-12-20T04:33:50;11.10;;;3.33;;
76063;SDS011;64762;52.006;8.424;2023-12-20T04:36:16;16.00;;;4.07;;
76063;SDS011;64762;52.006;8.424;2023-12-20T04:38:41;13.70;;;3.90;;
76063;SDS011;64762;52.006;8.424;2023-12-20T04:41:06;14.23;;;3.77;;
76063;SDS011;64762;52.006;8.424;2023-12-20T04:43:31;8.63;;;3.60;;
76063;SDS011;64762;52.006;8.424;2023-12-20T04:45:57;11.35;;;3.25;;
76063;SDS011;64762;52.006;8.424;2023-12-20T04:48:22;12.07;;;3.40;;
76063;SDS011;64762;52.006;8.424;2023-12-20T04:50:47;13.43;;;3.33;;
76063;SDS011;64762;52.006;8.424;2023-12-20T04:53:13;16.40;;;4.87;;
76063;SDS011;64762;52.006;8.424;2023-12-20T04:55:38;8.33;;;2.90;;
76063;SDS011;64762;52.006;8.424;2023-12-20T04:58:04;20.98;;;3.80;;
76063;SDS011;64762;52.006;8.424;2023-12-20T05:00:29;17.37;;;4.70;;
76063;SDS011;64762;52.006;8.424;2023-12-20T05:02:55;10.48;;;3.10;;
76063;SDS011;64762;52.006;8.424;2023-12-20T05:05:20;12.20;;;3.47;;
76063;SDS011;64762;52.006;8.424;2023-12-20T05:07:45;18.77;;;3.57;;
76063;SDS011;64762;52.006;8.424;2023-12-20T05:10:11;14.13;;;3.93;;
76063;SDS011;64762;52.006;8.424;2023-12-20T05:12:36;13.30;;;3.03;;
76063;SDS011;64762;52.006;8.424;2023-12-20T05:15:01;11.80;;;3.20;;
76063;SDS011;64762;52.006;8.424;2023-12-20T05:17:27;9.83;;;2.73;;
76063;SDS011;64762;52.006;8.424;2023-12-20T05:19:52;11.33;;;3.43;;
76063;SDS011;64762;52.006;8.424;2023-12-20T05:22:18;21.03;;;3.73;;
76063;SDS011;64762;52.006;8.424;2023-12-20T05:24:44;11.68;;;2.88;;
76063;SDS011;64762;52.006;8.424;2023-12-20T05:27:09;9.50;;;2.93;;
76063;SDS011;64762;52.006;8.424;2023-12-20T05:29:34;15.63;;;3.30;;
76063;SDS011;64762;52.006;8.424;2023-12-20T05:31:59;10.27;;;2.57;;
76063;SDS011;64762;52.006;8.424;2023-12-20T05:34:25;10.17;;;3.00;;
76063;SDS011;64762;52.006;8.424;2023-12-20T05:36:50;13.20;;;3.23;;
76063;SDS011;64762;52.006;8.424;2023-12-20T05:39:15;16.53;;;3.00;;
76063;SDS011;64762;52.006;8.424;2023-12-20T05:41:41;16.75;;;3.42;;
76063;SDS011;64762;52.006;8.424;2023-12-20T05:44:06;12.07;;;3.23;;
76063;SDS011;64762;52.006;8.424;2023-12-20T05:46:31;13.43;;;3.17;;
76063;SDS011;64762;52.006;8.424;2023-12-20T05:48:57;14.40;;;3.60;;
76063;SDS011;64762;52.006;8.424;2023-12-20T05:51:22;14.63;;;3.63;;
76063;SDS011;64762;52.006;8.424;2023-12-20T05:53:47;11.73;;;3.27;;
76063;SDS011;64762;52.006;8.424;2023-12-20T05:56:14;15.75;;;3.42;;
76063;SDS011;64762;52.006;8.424;2023-12-20T05:58:40;19.93;;;4.03;;
76063;SDS011;64762;52.006;8.424;2023-12-20T06:01:05;9.10;;;3.33;;
76063;SDS011;64762;52.006;8.424;2023-12-20T06:03:32;18.83;;;4.57;;
76063;SDS011;64762;52.006;8.424;2023-12-20T06:05:58;12.57;;;4.10;;
76063;SDS011;64762;52.006;8.424;2023-12-20T06:08:25;16.27;;;3.88;;
76063;SDS011;64762;52.006;8.424;2023-12-20T06:10:50;16.03;;;4.53;;
76063;SDS011;64762;52.006;8.424;2023-12-20T06:13:16;9.05;;;3.88;;
76063;SDS011;64762;52.006;8.424;2023-12-20T06:15:41;15.33;;;3.97;;
76063;SDS011;64762;52.006;8.424;2023-12-20T06:18:07;9.80;;;3.85;;
76063;SDS011;64762;52.006;8.424;2023-12-20T06:20:32;17.10;;;5.17;;
76063;SDS011;64762;52.006;8.424;2023-12-20T06:22:58;16.33;;;3.78;;
76063;SDS011;64762;52.006;8.424;2023-12-20T06:25:23;11.67;;;3.77;;
76063;SDS011;64762;52.006;8.424;2023-12-20T06:27:48;13.73;;;3.87;;
76063;SDS011;64762;52.006;8.424;2023-12-20T06:30:14;16.80;;;3.70;;
76063;SDS011;64762;52.006;8.424;2023-12-20T06:32:40;14.60;;;4.07;;
76063;SDS011;64762;52.006;8.424;2023-12-20T06:35:07;17.48;;;3.83;;
76063;SDS011;64762;52.006;8.424;2023-12-20T06:37:33;13.45;;;3.92;;
76063;SDS011;64762;52.006;8.424;2023-12-20T06:39:59;17.50;;;3.73;;
76063;SDS011;64762;52.006;8.424;2023-12-20T06:42:24;15.27;;;3.97;;
76063;SDS011;64762;52.006;8.424;2023-12-20T06:44:50;15.63;;;3.77;;
76063;SDS011;64762;52.006;8.424;2023-12-20T06:47:15;18.00;;;4.80;;
76063;SDS011;64762;52.006;8.424;2023-12-20T06:49:40;13.37;;;3.77;;
76063;SDS011;64762;52.006;8.424;2023-12-20T06:52:06;22.00;;;4.23;;
76063;SDS011;64762;52.006;8.424;2023-12-20T06:54:31;19.50;;;4.63;;
76063;SDS011;64762;52.006;8.424;2023-12-20T06:56:59;12.35;;;3.28;;
76063;SDS011;64762;52.006;8.424;2023-12-20T06:59:24;20.30;;;3.97;;
76063;SDS011;64762;52.006;8.424;2023-12-20T07:01:50;18.90;;;3.97;;
76063;SDS011;64762;52.006;8.424;2023-12-20T07:04:16;13.37;;;3.97;;
76063;SDS011;64762;52.006;8.424;2023-12-20T07:06:45;17.85;;;4.18;;
76063;SDS011;64762;52.006;8.424;2023-12-20T07:09:11;16.77;;;4.47;;
76063;SDS011;64762;52.006;8.424;2023-12-20T07:11:38;14.73;;;3.47;;
76063;SDS011;64762;52.006;8.424;2023-12-20T07:14:03;12.10;;;3.90;;
76063;SDS011;64762;52.006;8.424;2023-12-20T07:16:28;16.80;;;3.53;;
76063;SDS011;64762;52.006;8.424;2023-12-20T07:18:54;14.73;;;3.92;;
76063;SDS011;64762;52.006;8.424;2023-12-20T07:21:19;12.13;;;3.43;;
76063;SDS011;64762;52.006;8.424;2023-12-20T07:23:45;14.43;;;3.53;;
76063;SDS011;64762;52.006;8.424;2023-12-20T07:26:10;19.10;;;3.70;;
76063;SDS011;64762;52.006;8.424;2023-12-20T07:28:36;16.58;;;3.83;;
76063;SDS011;64762;52.006;8.424;2023-12-20T07:31:01;22.77;;;4.85;;
76063;SDS011;64762;52.006;8.424;2023-12-20T07:33:27;13.90;;;3.90;;
76063;SDS011;64762;52.006;8.424;2023-12-20T07:35:52;12.00;;;3.50;;
76063;SDS011;64762;52.006;8.424;2023-12-20T07:38:17;7.78;;;3.40;;
76063;SDS011;64762;52.006;8.424;2023-12-20T07:40:43;12.30;;;3.70;;
76063;SDS011;64762;52.006;8.424;2023-12-20T07:43:08;12.03;;;3.17;;
76063;SDS011;64762;52.006;8.424;2023-12-20T07:45:33;25.43;;;3.83;;
76063;SDS011;64762;52.006;8.424;2023-12-20T07:47:58;18.57;;;3.47;;
76063;SDS011;64762;52.006;8.424;2023-12-20T07:50:24;12.97;;;3.43;;
76063;SDS011;64762;52.006;8.424;2023-12-20T07:52:49;12.38;;;3.17;;
76063;SDS011;64762;52.006;8.424;2023-12-20T07:55:15;13.53;;;3.23;;
76063;SDS011;64762;52.006;8.424;2023-12-20T07:57:41;11.18;;;3.30;;
76063;SDS011;64762;52.006;8.424;2023-12-20T08:00:06;11.67;;;3.67;;
76063;SDS011;64762;52.006;8.424;2023-12-20T08:02:32;13.75;;;3.40;;
76063;SDS011;64762;52.006;8.424;2023-12-20T08:04:57;17.20;;;3.33;;
76063;SDS011;64762;52.006;8.424;2023-12-20T08:07:22;6.77;;;2.77;;
76063;SDS011;64762;52.006;8.424;2023-12-20T08:09:49;13.60;;;3.40;;
76063;SDS011;64762;52.006;8.424;2023-12-20T08:12:14;9.20;;;3.00;;
76063;SDS011;64762;52.006;8.424;2023-12-20T08:14:50;15.95;;;3.30;;
76063;SDS011;64762;52.006;8.424;2023-12-20T08:17:49;19.02;;;3.33;;
76063;SDS011;64762;52.006;8.424;2023-12-20T08:20:43;11.15;;;2.80;;
76063;SDS011;64762;52.006;8.424;2023-12-20T08:23:09;11.00;;;3.25;;
76063;SDS011;64762;52.006;8.424;2023-12-20T08:25:34;14.03;;;3.20;;
76063;SDS011;64762;52.006;8.424;2023-12-20T08:27:59;13.77;;;3.00;;
76063;SDS011;64762;52.006;8.424;2023-12-20T08:30:24;16.80;;;3.37;;
76063;SDS011;64762;52.006;8.424;2023-12-20T08:32:50;12.13;;;3.53;;
76063;SDS011;64762;52.006;8.424;2023-12-20T08:35:15;20.17;;;3.20;;
76063;SDS011;64762;52.006;8.424;2023-12-20T08:37:41;13.02;;;2.92;;
76063;SDS011;64762;52.006;8.424;2023-12-20T08:40:06;12.00;;;3.47;;
76063;SDS011;64762;52.006;8.424;2023-12-20T08:42:32;15.65;;;3.15;;
76063;SDS011;64762;52.006;8.424;2023-12-20T08:44:57;10.67;;;3.37;;
76063;SDS011;64762;52.006;8.424;2023-12-20T08:47:28;14.50;;;3.50;;
76063;SDS011;64762;52.006;8.424;2023-12-20T08:49:54;15.63;;;3.37;;
76063;SDS011;64762;52.006;8.424;2023-12-20T08:52:22;12.18;;;3.88;;
76063;SDS011;64762;52.006;8.424;2023-12-20T08:54:48;12.68;;;3.58;;
76063;SDS011;64762;52.006;8.424;2023-12-20T08:57:19;11.77;;;3.85;;
76063;SDS011;64762;52.006;8.424;2023-12-20T08:59:51;22.98;;;4.30;;
76063;SDS011;64762;52.006;8.424;2023-12-20T09:02:16;8.93;;;3.50;;
76063;SDS011;64762;52.006;8.424;2023-12-20T09:04:42;14.80;;;3.50;;
76063;SDS011;64762;52.006;8.424;2023-12-20T09:07:20;13.25;;;4.05;;
76063;SDS011;64762;52.006;8.424;2023-12-20T09:09:47;11.90;;;3.63;;
76063;SDS011;64762;52.006;8.424;2023-12-20T09:12:12;13.00;;;3.53;;
76063;SDS011;64762;52.006;8.424;2023-12-20T09:14:37;12.83;;;3.67;;
76063;SDS011;64762;52.006;8.424;2023-12-20T09:17:03;19.80;;;3.70;;
76063;SDS011;64762;52.006;8.424;2023-12-20T09:19:28;20.67;;;4.60;;
76063;SDS011;64762;52.006;8.424;2023-12-20T09:21:54;9.27;;;3.65;;
76063;SDS011;64762;52.006;8.424;2023-12-20T09:24:19;14.47;;;4.00;;
76063;SDS011;64762;52.006;8.424;2023-12-20T09:26:45;13.23;;;3.40;;
76063;SDS011;64762;52.006;8.424;2023-12-20T09:29:10;11.43;;;3.73;;
76063;SDS011;64762;52.006;8.424;2023-12-20T09:31:40;24.52;;;4.43;;
76063;SDS011;64762;52.006;8.424;2023-12-20T09:34:05;17.52;;;3.95;;
76063;SDS011;64762;52.006;8.424;2023-12-20T09:36:31;18.23;;;3.83;;
76063;SDS011;64762;52.006;8.424;2023-12-20T09:41:26;12.60;;;3.50;;
76063;SDS011;64762;52.006;8.424;2023-12-20T09:43:51;16.70;;;3.92;;
76063;SDS011;64762;52.006;8.424;2023-12-20T09:46:19;20.88;;;4.28;;
76063;SDS011;64762;52.006;8.424;2023-12-20T09:48:52;11.90;;;4.03;;
76063;SDS011;64762;52.006;8.424;2023-12-20T09:51:18;12.95;;;3.88;;
76063;SDS011;64762;52.006;8.424;2023-12-20T09:53:44;19.63;;;3.70;;
76063;SDS011;64762;52.006;8.424;2023-12-20T09:56:11;10.10;;;3.75;;
76063;SDS011;64762;52.006;8.424;2023-12-20T09:58:37;17.58;;;4.80;;
76063;SDS011;64762;52.006;8.424;2023-12-20T10:01:04;19.20;;;3.97;;
76063;SDS011;64762;52.006;8.424;2023-12-20T10:03:31;9.37;;;3.70;;
76063;SDS011;64762;52.006;8.424;2023-12-20T10:05:56;16.60;;;3.80;;
76063;SDS011;64762;52.006;8.424;2023-12-20T10:08:22;12.40;;;4.25;;
76063;SDS011;64762;52.006;8.424;2023-12-20T10:10:49;14.95;;;3.97;;
76063;SDS011;64762;52.006;8.424;2023-12-20T10:13:14;15.67;;;4.23;;
76063;SDS011;64762;52.006;8.424;2023-12-20T10:15:40;18.05;;;3.75;;
76063;SDS011;64762;52.006;8.424;2023-12-20T10:18:06;9.60;;;3.00;;
76063;SDS011;64762;52.006;8.424;2023-12-20T10:20:31;12.32;;;3.72;;
76063;SDS011;64762;52.006;8.424;2023-12-20T10:22:57;20.25;;;3.80;;
76063;SDS011;64762;52.006;8.424;2023-12-20T10:25:23;14.90;;;4.40;;
76063;SDS011;64762;52.006;8.424;2023-12-20T10:27:50;15.95;;;3.85;;
76063;SDS011;64762;52.006;8.424;2023-12-20T10:30:34;13.00;;;3.75;;
76063;SDS011;64762;52.006;8.424;2023-12-20T10:32:59;17.30;;;4.10;;
76063;SDS011;64762;52.006;8.424;2023-12-20T10:35:24;14.33;;;3.57;;
76063;SDS011;64762;52.006;8.424;2023-12-20T10:37:51;16.45;;;3.50;;
76063;SDS011;64762;52.006;8.424;2023-12-20T10:40:21;18.25;;;3.95;;
76063;SDS011;64762;52.006;8.424;2023-12-20T10:42:46;20.60;;;4.03;;
76063;SDS011;64762;52.006;8.424;2023-12-20T10:45:12;17.42;;;3.75;;
76063;SDS011;64762;52.006;8.424;2023-12-20T10:47:37;15.20;;;3.20;;
76063;SDS011;64762;52.006;8.424;2023-12-20T10:50:05;11.80;;;3.05;;
76063;SDS011;64762;52.006;8.424;2023-12-20T10:52:31;12.65;;;3.30;;
76063;SDS011;64762;52.006;8.424;2023-12-20T10:54:57;20.00;;;3.63;;
76063;SDS011;64762;52.006;8.424;2023-12-20T10:57:23;17.75;;;3.40;;
76063;SDS011;64762;52.006;8.424;2023-12-20T10:59:50;16.27;;;3.30;;
76063;SDS011;64762;52.006;8.424;2023-12-20T11:02:17;19.60;;;3.70;;
76063;SDS011;64762;52.006;8.424;2023-12-20T11:04:56;18.80;;;3.83;;
76063;SDS011;64762;52.006;8.424;2023-12-20T11:07:36;12.15;;;3.28;;
76063;SDS011;64762;52.006;8.424;2023-12-20T11:12:44;13.40;;;3.33;;
76063;SDS011;64762;52.006;8.424;2023-12-20T11:15:12;13.15;;;3.05;;
76063;SDS011;64762;52.006;8.424;2023-12-20T11:17:39;13.70;;;3.00;;
76063;SDS011;64762;52.006;8.424;2023-12-20T11:20:06;11.00;;;2.80;;
76063;SDS011;64762;52.006;8.424;2023-12-20T11:22:33;13.05;;;2.80;;
76063;SDS011;64762;52.006;8.424;2023-12-20T11:25:06;16.13;;;3.97;;
76063;SDS011;64762;52.006;8.424;2023-12-20T11:27:36;7.63;;;2.70;;
76063;SDS011;64762;52.006;8.424;2023-12-20T11:30:03;13.48;;;2.90;;
76063;SDS011;64762;52.006;8.424;2023-12-20T11:32:31;12.88;;;2.67;;
76063;SDS011;64762;52.006;8.424;2023-12-20T11:34:59;10.15;;;2.80;;
76063;SDS011;64762;52.006;8.424;2023-12-20T11:37:29;10.13;;;2.38;;
76063;SDS011;64762;52.006;8.424;2023-12-20T11:40:06;14.43;;;2.92;;
76063;SDS011;64762;52.006;8.424;2023-12-20T11:42:50;15.68;;;3.55;;
76063;SDS011;64762;52.006;8.424;2023-12-20T11:45:20;7.28;;;2.55;;
76063;SDS011;64762;52.006;8.424;2023-12-20T11:47:47;12.45;;;2.80;;
76063;SDS011;64762;52.006;8.424;2023-12-20T11:50:14;17.02;;;4.07;;
76063;SDS011;64762;52.006;8.424;2023-12-20T11:52:40;16.00;;;3.53;;
76063;SDS011;64762;52.006;8.424;2023-12-20T11:55:05;10.60;;;3.00;;
76063;SDS011;64762;52.006;8.424;2023-12-20T11:57:31;7.13;;;2.75;;
76063;SDS011;64762;52.006;8.424;2023-12-20T11:59:57;10.45;;;3.17;;
76063;SDS011;64762;52.006;8.424;2023-12-20T12:02:22;13.20;;;3.03;;
76063;SDS011;64762;52.006;8.424;2023-12-20T12:04:49;12.07;;;3.20;;
76063;SDS011;64762;52.006;8.424;2023-12-20T12:07:15;14.23;;;4.85;;
76063;SDS011;64762;52.006;8.424;2023-12-20T12:09:41;5.45;;;2.58;;
76063;SDS011;64762;52.006;8.424;2023-12-20T12:12:06;8.97;;;2.60;;
76063;SDS011;64762;52.006;8.424;2023-12-20T12:14:32;9.77;;;2.60;;
76063;SDS011;64762;52.006;8.424;2023-12-20T12:16:58;10.83;;;2.57;;
76063;SDS011;64762;52.006;8.424;2023-12-20T12:19:24;8.67;;;2.57;;
76063;SDS011;64762;52.006;8.424;2023-12-20T12:22:13;12.65;;;2.45;;
76063;SDS011;64762;52.006;8.424;2023-12-20T12:24:46;9.77;;;2.55;;
76063;SDS011;64762;52.006;8.424;2023-12-20T12:27:12;11.55;;;2.60;;
76063;SDS011;64762;52.006;8.424;2023-12-20T12:29:38;11.57;;;3.30;;
76063;SDS011;64762;52.006;8.424;2023-12-20T12:32:04;11.02;;;2.83;;
76063;SDS011;64762;52.006;8.424;2023-12-20T12:34:31;8.90;;;2.85;;
76063;SDS011;64762;52.006;8.424;2023-12-20T12:36:57;14.75;;;2.78;;
76063;SDS011;64762;52.006;8.424;2023-12-20T12:39:23;14.23;;;2.83;;
76063;SDS011;64762;52.006;8.424;2023-12-20T12:41:50;14.95;;;3.55;;
76063;SDS011;64762;52.006;8.424;2023-12-20T12:44:15;5.20;;;2.30;;
76063;SDS011;64762;52.006;8.424;2023-12-20T12:46:40;10.55;;;3.03;;
76063;SDS011;64762;52.006;8.424;2023-12-20T12:49:06;11.52;;;3.03;;
76063;SDS011;64762;52.006;8.424;2023-12-20T12:51:31;11.60;;;3.23;;
76063;SDS011;64762;52.006;8.424;2023-12-20T12:53:56;11.60;;;3.13;;
76063;SDS011;64762;52.006;8.424;2023-12-20T12:56:22;11.20;;;2.70;;
76063;SDS011;64762;52.006;8.424;2023-12-20T12:58:48;14.07;;;3.60;;
76063;SDS011;64762;52.006;8.424;2023-12-20T13:01:13;11.90;;;3.33;;
76063;SDS011;64762;52.006;8.424;2023-12-20T13:03:39;11.93;;;2.63;;
76063;SDS011;64762;52.006;8.424;2023-12-20T13:06:04;11.05;;;3.47;;
76063;SDS011;64762;52.006;8.424;2023-12-20T13:08:31;15.27;;;3.38;;
76063;SDS011;64762;52.006;8.424;2023-12-20T13:10:56;13.50;;;2.97;;
76063;SDS011;64762;52.006;8.424;2023-12-20T13:13:25;14.23;;;3.17;;
76063;SDS011;64762;52.006;8.424;2023-12-20T13:15:50;16.03;;;3.10;;
76063;SDS011;64762;52.006;8.424;2023-12-20T13:18:19;8.60;;;2.15;;
76063;SDS011;64762;52.006;8.424;2023-12-20T13:20:45;5.57;;;1.70;;
76063;SDS011;64762;52.006;8.424;2023-12-20T13:23:10;7.23;;;1.93;;
76063;SDS011;64762;52.006;8.424;2023-12-20T13:25:35;9.27;;;2.07;;
76063;SDS011;64762;52.006;8.424;2023-12-20T13:28:01;8.23;;;1.92;;
76063;SDS011;64762;52.006;8.424;2023-12-20T13:30:27;10.25;;;1.83;;
76063;SDS011;64762;52.006;8.424;2023-12-20T13:32:52;7.40;;;1.87;;
76063;SDS011;64762;52.006;8.424;2023-12-20T13:35:18;9.23;;;1.47;;
76063;SDS011;64762;52.006;8.424;2023-12-20T13:37:43;6.93;;;1.10;;
76063;SDS011;64762;52.006;8.424;2023-12-20T13:40:09;10.68;;;1.63;;
76063;SDS011;64762;52.006;8.424;2023-12-20T13:42:35;9.75;;;1.58;;
76063;SDS011;64762;52.006;8.424;2023-12-20T13:45:00;6.10;;;1.50;;
76063;SDS011;64762;52.006;8.424;2023-12-20T13:47:26;3.90;;;1.20;;
76063;SDS011;64762;52.006;8.424;2023-12-20T13:49:51;5.40;;;1.00;;
76063;SDS011;64762;52.006;8.424;2023-12-20T13:52:17;5.60;;;1.33;;
76063;SDS011;64762;52.006;8.424;2023-12-20T13:54:43;8.30;;;1.25;;
76063;SDS011;64762;52.006;8.424;2023-12-20T13:57:09;3.35;;;1.00;;
76063;SDS011;64762;52.006;8.424;2023-12-20T13:59:34;10.35;;;1.40;;
76063;SDS011;64762;52.006;8.424;2023-12-20T14:02:00;8.00;;;1.20;;
76063;SDS011;64762;52.006;8.424;2023-12-20T14:04:26;6.15;;;1.60;;
76063;SDS011;64762;52.006;8.424;2023-12-20T14:06:51;4.37;;;1.43;;
76063;SDS011;64762;52.006;8.424;2023-12-20T14:09:16;5.93;;;1.33;;
76063;SDS011;64762;52.006;8.424;2023-12-20T14:11:42;7.05;;;1.42;;
76063;SDS011;64762;52.006;8.424;2023-12-20T14:14:07;7.50;;;1.42;;
76063;SDS011;64762;52.006;8.424;2023-12-20T14:16:33;8.70;;;1.30;;
76063;SDS011;64762;52.006;8.424;2023-12-20T14:18:59;9.80;;;1.48;;
76063;SDS011;64762;52.006;8.424;2023-12-20T14:21:24;13.17;;;1.80;;
76063;SDS011;64762;52.006;8.424;2023-12-20T14:23:49;8.75;;;1.10;;
76063;SDS011;64762;52.006;8.424;2023-12-20T14:26:15;9.67;;;1.80;;
76063;SDS011;64762;52.006;8.424;2023-12-20T14:28:41;5.38;;;1.30;;
76063;SDS011;64762;52.006;8.424;2023-12-20T14:31:06;4.10;;;1.40;;
76063;SDS011;64762;52.006;8.424;2023-12-20T14:33:32;2.93;;;1.13;;
76063;SDS011;64762;52.006;8.424;2023-12-20T14:35:57;7.63;;;1.60;;
76063;SDS011;64762;52.006;8.424;2023-12-20T14:38:22;7.33;;;1.13;;